Time;durP1;ratioP1;P1;durP2;ratioP2;P2;SDS_P1;SDS_P2;PMS_P1;PMS_P2;Temp;Humidity;BMP_temperature;BMP_pressure;BME280_temperature;BME280_humidity;BME280_pressure;Samples;Min_cycle;Max_cycle;Signal;HPM_P1;HPM_P2
2021/12/02 00:01:14;;;;;;;4.28;2.50;;;0.50;1.00;;;;;;4971008;28;20710;-71
2021/12/02 00:03:41;;;;;;;1.73;1.63;;;0.50;1.00;;;;;;4969812;28;20174;-72
2021/12/02 00:06:09;;;;;;;2.08;1.98;;;0.50;1.00;;;;;;4990245;28;20216;-71
2021/12/02 00:08:35;;;;;;;2.05;1.75;;;0.50;1.00;;;;;;4990308;28;20192;-71
2021/12/02 00:11:01;;;;;;;2.00;1.80;;;0.50;1.00;;;;;;4990324;28;20626;-72
2021/12/02 00:13:29;;;;;;;2.73;2.53;;;0.50;1.00;;;;;;4989519;28;20165;-72
2021/12/02 00:16:04;;;;;;;2.33;2.15;;;0.50;1.00;;;;;;4990088;28;20481;-72
2021/12/02 00:21:26;;;;;;;2.15;2.05;;;0.60;1.00;;;;;;4970949;28;20231;-72
2021/12/02 00:24:06;;;;;;;2.35;2.25;;;0.60;1.00;;;;;;4969422;28;20660;-72
2021/12/02 00:26:34;;;;;;;1.88;1.70;;;0.60;1.00;;;;;;4970533;28;20193;-71
2021/12/02 00:29:02;;;;;;;1.60;1.50;;;0.50;1.00;;;;;;4970677;28;20205;-72
2021/12/02 00:31:30;;;;;;;2.53;2.28;;;0.50;1.00;;;;;;4973524;28;20161;-72
2021/12/02 00:33:58;;;;;;;2.20;2.10;;;0.50;1.00;;;;;;4992465;28;20165;-71
2021/12/02 00:36:26;;;;;;;2.00;1.90;;;0.50;1.00;;;;;;4991978;28;20280;-71
2021/12/02 00:38:54;;;;;;;2.60;2.15;;;0.60;1.00;;;;;;4992115;28;20184;-72
2021/12/02 00:41:22;;;;;;;4.82;2.25;;;0.50;1.00;;;;;;4993414;28;20614;-71
2021/12/02 00:43:50;;;;;;;2.10;2.00;;;0.60;1.00;;;;;;4991767;28;20176;-72
2021/12/02 00:46:18;;;;;;;1.90;1.80;;;0.60;1.00;;;;;;4984540;28;20205;-71
2021/12/02 00:48:45;;;;;;;1.88;1.77;;;0.60;1.00;;;;;;4973914;28;20200;-73
2021/12/02 00:51:12;;;;;;;1.85;1.75;;;0.60;1.00;;;;;;4973669;28;20162;-73
2021/12/02 00:53:43;;;;;;;1.80;1.70;;;0.60;1.00;;;;;;4972858;28;20258;-72
2021/12/02 00:56:11;;;;;;;1.80;1.70;;;0.60;1.00;;;;;;4977220;28;20219;-71
2021/12/02 00:58:37;;;;;;;2.38;2.00;;;0.60;1.00;;;;;;4993110;28;20177;-72
2021/12/02 01:01:03;;;;;;;1.47;1.37;;;0.60;1.00;;;;;;4993015;28;20169;-71
2021/12/02 01:03:37;;;;;;;1.58;1.48;;;0.70;1.00;;;;;;4991634;28;20811;-71
2021/12/02 01:06:05;;;;;;;1.80;1.70;;;0.60;1.00;;;;;;4992864;28;20258;-72
2021/12/02 01:08:32;;;;;;;1.80;1.70;;;0.70;1.00;;;;;;4992824;28;20703;-72
2021/12/02 01:10:57;;;;;;;3.47;1.70;;;0.70;1.00;;;;;;4981432;28;20188;-73
2021/12/02 01:13:23;;;;;;;2.30;2.10;;;0.70;1.00;;;;;;4972706;28;20169;-72
2021/12/02 01:15:49;;;;;;;4.60;2.10;;;0.60;1.00;;;;;;4973292;28;20194;-73
2021/12/02 01:18:15;;;;;;;1.75;1.65;;;0.60;1.00;;;;;;4973207;28;20173;-73
2021/12/02 01:20:43;;;;;;;1.73;1.63;;;0.60;1.00;;;;;;4973415;28;20184;-72
2021/12/02 01:23:09;;;;;;;2.10;2.00;;;0.70;1.00;;;;;;4971860;28;20448;-74
2021/12/02 01:25:37;;;;;;;1.73;1.63;;;0.70;1.00;;;;;;4989949;28;20207;-73
2021/12/02 01:28:04;;;;;;;1.80;1.70;;;0.70;1.00;;;;;;4991374;28;20200;-73
2021/12/02 01:30:32;;;;;;;4.90;2.17;;;0.80;1.00;;;;;;4992520;28;20173;-71
2021/12/02 01:33:05;;;;;;;1.88;1.77;;;0.80;1.00;;;;;;4980988;28;20177;-71
2021/12/02 01:35:33;;;;;;;1.90;1.80;;;0.70;1.00;;;;;;4973151;28;20201;-72
2021/12/02 01:37:59;;;;;;;2.72;2.53;;;0.70;1.00;;;;;;4976757;28;20527;-72
2021/12/02 01:40:26;;;;;;;1.60;1.50;;;0.70;1.00;;;;;;4991749;28;20173;-73
2021/12/02 01:42:55;;;;;;;1.60;1.50;;;0.70;1.00;;;;;;4990500;28;20169;-72
2021/12/02 01:45:27;;;;;;;1.85;1.75;;;0.70;1.00;;;;;;4992255;28;20213;-72
2021/12/02 01:47:54;;;;;;;1.73;1.63;;;0.70;1.00;;;;;;4992311;28;20665;-71
2021/12/02 01:50:23;;;;;;;1.90;1.80;;;0.70;1.00;;;;;;4992090;28;20665;-71
2021/12/02 01:52:57;;;;;;;2.00;1.90;;;0.60;1.00;;;;;;4982390;28;20162;-71
2021/12/02 01:55:24;;;;;;;2.30;2.10;;;0.60;1.00;;;;;;4972831;28;20267;-71
2021/12/02 01:58:02;;;;;;;1.85;1.75;;;0.70;1.00;;;;;;4972713;28;20162;-71
2021/12/02 02:00:44;;;;;;;2.65;2.55;;;0.60;1.00;;;;;;4977552;28;20177;-73
2021/12/02 02:03:11;;;;;;;2.65;1.77;;;0.70;1.00;;;;;;4991209;28;20310;-71
2021/12/02 02:05:37;;;;;;;1.27;1.17;;;0.70;1.00;;;;;;4991879;28;20189;-72
2021/12/02 02:08:03;;;;;;;1.67;1.58;;;0.80;1.00;;;;;;4971551;28;20177;-71
2021/12/02 02:10:33;;;;;;;1.77;1.67;;;0.70;1.00;;;;;;4972397;28;20166;-70
2021/12/02 02:13:03;;;;;;;2.15;2.05;;;0.70;1.00;;;;;;4971613;28;20162;-71
2021/12/02 02:15:30;;;;;;;2.33;2.13;;;0.80;1.00;;;;;;4972561;28;20662;-71
2021/12/02 02:17:59;;;;;;;2.67;1.52;;;0.70;1.00;;;;;;4971917;28;20200;-72
2021/12/02 02:21:04;;;;;;;1.60;1.50;;;0.70;1.00;;;;;;4978689;28;20260;-72
2021/12/02 02:23:35;;;;;;;1.45;1.35;;;0.70;1.00;;;;;;4989733;28;20165;-71
2021/12/02 02:26:01;;;;;;;1.60;1.50;;;0.70;1.00;;;;;;4991850;28;20246;-72
2021/12/02 02:28:28;;;;;;;1.50;1.40;;;0.70;1.00;;;;;;4991641;28;20193;-75
2021/12/02 02:30:54;;;;;;;1.90;1.80;;;0.80;1.00;;;;;;4991623;28;20219;-72
2021/12/02 02:33:20;;;;;;;1.83;1.73;;;0.70;1.00;;;;;;4990818;28;20181;-73
2021/12/02 02:35:47;;;;;;;1.80;1.70;;;0.70;1.00;;;;;;4973004;28;20185;-71
2021/12/02 02:38:14;;;;;;;2.03;1.92;;;0.70;1.00;;;;;;4971685;28;20654;-74
2021/12/02 02:40:46;;;;;;;1.90;1.80;;;0.80;1.00;;;;;;4972160;28;20542;-73
2021/12/02 02:43:21;;;;;;;1.70;1.60;;;0.80;1.00;;;;;;4971181;28;20204;-73
2021/12/02 02:45:47;;;;;;;1.95;1.85;;;0.80;1.00;;;;;;4971859;28;20196;-70
2021/12/02 02:48:13;;;;;;;2.10;1.90;;;0.80;1.00;;;;;;4978174;28;20192;-73
2021/12/02 02:50:38;;;;;;;1.80;1.70;;;0.80;1.00;;;;;;4989403;28;20184;-73
2021/12/02 02:53:10;;;;;;;2.30;2.10;;;0.80;1.00;;;;;;4989934;28;20215;-73
2021/12/02 02:55:36;;;;;;;1.77;1.67;;;0.90;1.00;;;;;;4990821;28;20188;-71
2021/12/02 02:58:32;;;;;;;2.67;2.50;;;0.90;1.00;;;;;;4991420;28;20172;-73
2021/12/02 03:01:24;;;;;;;1.40;1.30;;;0.80;1.00;;;;;;4991042;28;20181;-71
2021/12/02 03:03:52;;;;;;;1.67;1.52;;;0.90;1.00;;;;;;4971149;28;20174;-72
2021/12/02 03:08:52;;;;;;;1.98;1.88;;;0.90;1.00;;;;;;4971684;28;20600;-73
2021/12/02 03:11:19;;;;;;;1.90;1.80;;;1.00;1.00;;;;;;4971085;28;20526;-71
2021/12/02 03:13:50;;;;;;;2.28;1.83;;;1.00;1.00;;;;;;4970810;28;20191;-74
2021/12/02 03:19:01;;;;;;;1.70;1.60;;;1.10;1.00;;;;;;4990976;28;20214;-70
2021/12/02 03:21:28;;;;;;;1.60;1.50;;;1.00;1.00;;;;;;4991010;28;20248;-73
2021/12/02 03:23:57;;;;;;;1.65;1.55;;;1.00;1.00;;;;;;4990031;28;20404;-72
2021/12/02 03:26:23;;;;;;;1.67;1.58;;;1.00;1.00;;;;;;4989728;28;20192;-74
2021/12/02 03:28:51;;;;;;;2.10;1.88;;;1.00;1.00;;;;;;4971526;28;20556;-72
2021/12/02 03:31:17;;;;;;;2.65;2.22;;;1.10;1.00;;;;;;4970817;28;20170;-72
2021/12/02 03:33:43;;;;;;;1.40;1.30;;;1.00;1.00;;;;;;4970500;28;20253;-73
2021/12/02 03:36:10;;;;;;;1.70;1.60;;;1.00;1.00;;;;;;4971462;28;20225;-70
2021/12/02 03:38:36;;;;;;;2.13;2.03;;;1.00;1.00;;;;;;4971349;28;20424;-72
2021/12/02 03:41:02;;;;;;;2.60;1.63;;;1.00;1.00;;;;;;4977752;28;20185;-73
2021/12/02 03:43:40;;;;;;;1.90;1.80;;;1.00;1.00;;;;;;4989848;28;20551;-73
2021/12/02 03:46:08;;;;;;;1.90;1.48;;;1.10;1.00;;;;;;4990660;28;20192;-73
2021/12/02 03:48:38;;;;;;;1.60;1.50;;;1.10;1.00;;;;;;4989848;28;20653;-71
2021/12/02 03:51:08;;;;;;;1.70;1.60;;;1.10;1.00;;;;;;4990613;28;20165;-73
2021/12/02 03:53:34;;;;;;;1.85;1.75;;;1.20;1.00;;;;;;4989638;28;20169;-71
2021/12/02 03:56:01;;;;;;;1.52;1.42;;;1.20;1.00;;;;;;4975137;28;20735;-71
2021/12/02 03:58:28;;;;;;;1.90;1.80;;;1.10;1.00;;;;;;4971109;28;20698;-73
2021/12/02 04:00:54;;;;;;;1.80;1.70;;;1.10;1.00;;;;;;4971007;28;20244;-71
2021/12/02 04:03:19;;;;;;;2.63;2.40;;;1.00;1.00;;;;;;4968998;28;20174;-73
2021/12/02 04:05:45;;;;;;;1.77;1.67;;;1.10;1.00;;;;;;4972506;28;20710;-72
2021/12/02 04:08:11;;;;;;;2.10;2.00;;;1.10;1.00;;;;;;4973794;28;20642;-69
2021/12/02 04:10:40;;;;;;;2.03;1.92;;;1.10;1.00;;;;;;4992085;28;20188;-73
2021/12/02 04:15:40;;;;;;;1.80;1.70;;;1.10;1.00;;;;;;4993805;28;20188;-70
2021/12/02 04:18:07;;;;;;;2.95;2.08;;;1.10;1.00;;;;;;4993793;28;20166;-73
2021/12/02 04:20:33;;;;;;;1.90;1.80;;;1.10;1.00;;;;;;4993677;28;20817;-73
2021/12/02 04:22:59;;;;;;;1.70;1.60;;;1.10;1.00;;;;;;4985678;28;20182;-70
2021/12/02 04:25:26;;;;;;;1.90;1.80;;;1.00;1.00;;;;;;4973521;28;20197;-71
2021/12/02 04:27:52;;;;;;;1.75;1.65;;;1.00;1.00;;;;;;4974109;28;20166;-73
2021/12/02 04:30:21;;;;;;;2.50;2.20;;;1.00;1.00;;;;;;4974128;28;20205;-71
2021/12/02 04:32:47;;;;;;;2.67;1.80;;;1.00;1.00;;;;;;4973384;28;20554;-70
2021/12/02 04:35:14;;;;;;;3.17;2.20;;;1.10;1.00;;;;;;4973926;28;20201;-70
2021/12/02 04:37:43;;;;;;;2.00;1.90;;;1.10;1.00;;;;;;4986707;28;20257;-70
2021/12/02 04:40:11;;;;;;;1.90;1.70;;;1.10;1.00;;;;;;4993502;28;20205;-71
2021/12/02 04:42:36;;;;;;;2.08;1.98;;;1.10;1.00;;;;;;4992465;28;20196;-73
2021/12/02 04:45:03;;;;;;;1.70;1.60;;;1.10;1.00;;;;;;4992550;28;20649;-71
2021/12/02 04:47:29;;;;;;;1.65;1.55;;;1.10;1.00;;;;;;4993340;28;20562;-74
2021/12/02 04:49:54;;;;;;;1.70;1.60;;;1.10;1.00;;;;;;4992979;28;20236;-71
2021/12/02 04:52:20;;;;;;;1.80;1.70;;;1.10;1.00;;;;;;4973024;28;20755;-71
2021/12/02 04:54:46;;;;;;;1.70;1.60;;;1.10;1.00;;;;;;4972624;28;20260;-70
2021/12/02 04:57:11;;;;;;;1.87;1.77;;;1.10;1.00;;;;;;4973583;28;20276;-70
2021/12/02 04:59:37;;;;;;;2.10;1.90;;;1.10;1.00;;;;;;4973655;28;20195;-73
2021/12/02 05:02:03;;;;;;;2.10;2.00;;;1.10;1.00;;;;;;4972458;28;20533;-72
2021/12/02 05:04:28;;;;;;;1.73;1.63;;;1.20;1.00;;;;;;4976245;28;20234;-71
2021/12/02 05:06:54;;;;;;;3.67;2.27;;;1.10;1.00;;;;;;4992963;28;20193;-71
2021/12/02 05:09:20;;;;;;;2.87;1.60;;;1.20;1.00;;;;;;4992873;28;20197;-70
2021/12/02 05:11:45;;;;;;;2.30;1.87;;;1.20;1.00;;;;;;4992780;28;20199;-71
2021/12/02 05:14:11;;;;;;;6.20;1.77;;;1.20;1.00;;;;;;4991980;28;20173;-73
2021/12/02 05:16:38;;;;;;;2.63;1.50;;;1.20;1.00;;;;;;4992737;28;20219;-71
2021/12/02 05:19:04;;;;;;;1.90;1.80;;;1.30;1.00;;;;;;4983871;28;20538;-70
2021/12/02 05:21:29;;;;;;;2.57;2.20;;;1.20;1.00;;;;;;4972817;28;20191;-70
2021/12/02 05:23:55;;;;;;;2.03;1.93;;;1.20;1.00;;;;;;4972372;28;20562;-69
2021/12/02 05:26:25;;;;;;;4.57;1.67;;;1.20;1.00;;;;;;4973089;28;20662;-73
2021/12/02 05:28:52;;;;;;;1.90;1.80;;;1.10;1.00;;;;;;4973263;28;20670;-73
2021/12/02 05:31:18;;;;;;;1.83;1.73;;;1.30;1.00;;;;;;4973253;28;20170;-74
2021/12/02 05:33:44;;;;;;;2.85;1.83;;;1.20;1.00;;;;;;4986698;28;20626;-69
2021/12/02 05:36:10;;;;;;;1.90;1.80;;;1.30;1.00;;;;;;4992373;28;20240;-69
2021/12/02 05:38:36;;;;;;;10.90;2.57;;;1.30;1.00;;;;;;4992002;28;20196;-72
2021/12/02 05:41:03;;;;;;;1.70;1.60;;;1.20;1.00;;;;;;4992310;28;20396;-69
2021/12/02 05:43:29;;;;;;;1.80;1.70;;;1.20;1.00;;;;;;4991611;28;20187;-73
2021/12/02 05:45:55;;;;;;;3.60;2.45;;;1.20;1.00;;;;;;4991228;28;20209;-73
2021/12/02 05:48:21;;;;;;;3.53;2.07;;;1.20;1.00;;;;;;4972738;28;20177;-73
2021/12/02 05:50:47;;;;;;;1.97;1.87;;;1.20;1.00;;;;;;4973048;28;20174;-73
2021/12/02 05:53:12;;;;;;;3.30;2.00;;;1.10;1.00;;;;;;4971898;28;20453;-73
2021/12/02 05:55:38;;;;;;;5.13;1.93;;;1.10;1.00;;;;;;4972376;28;20444;-70
2021/12/02 05:58:06;;;;;;;2.00;1.90;;;1.10;1.00;;;;;;4972417;28;20173;-73
2021/12/02 06:00:33;;;;;;;2.17;2.03;;;1.10;1.00;;;;;;4972626;28;20401;-70
2021/12/02 06:02:59;;;;;;;3.65;1.77;;;1.10;1.00;;;;;;4972747;28;20162;-73
2021/12/02 06:05:25;;;;;;;1.93;1.83;;;1.00;1.00;;;;;;4972861;28;20186;-74
2021/12/02 06:07:52;;;;;;;2.10;1.90;;;1.00;1.00;;;;;;4972565;28;20184;-68
2021/12/02 06:10:20;;;;;;;2.22;2.13;;;1.00;1.00;;;;;;4971052;28;21038;-72
2021/12/02 06:12:46;;;;;;;6.15;2.08;;;1.00;1.00;;;;;;4971743;28;20169;-69
2021/12/02 06:15:12;;;;;;;9.13;2.23;;;1.00;1.00;;;;;;4972003;28;20189;-70
2021/12/02 06:17:38;;;;;;;2.03;1.93;;;1.00;1.00;;;;;;4971015;28;20315;-73
2021/12/02 06:20:06;;;;;;;2.33;2.10;;;1.00;1.00;;;;;;4990922;28;20173;-74
2021/12/02 06:22:32;;;;;;;6.15;2.13;;;1.00;1.00;;;;;;4990694;28;20187;-70
2021/12/02 06:27:47;;;;;;;2.38;2.10;;;1.00;1.00;;;;;;4991242;28;20169;-70
2021/12/02 06:30:15;;;;;;;2.38;1.83;;;1.10;1.00;;;;;;4991663;28;20245;-73
2021/12/02 06:32:41;;;;;;;6.00;2.42;;;1.10;1.00;;;;;;4982186;28;20223;-69
2021/12/02 06:35:08;;;;;;;2.90;2.50;;;1.00;1.00;;;;;;4971649;28;20178;-72
2021/12/02 06:37:34;;;;;;;6.55;2.03;;;1.00;1.00;;;;;;4970814;28;20401;-74
2021/12/02 06:39:59;;;;;;;2.78;2.10;;;1.10;1.00;;;;;;4971821;28;20186;-75
2021/12/02 06:42:25;;;;;;;1.70;1.60;;;1.10;1.00;;;;;;4971320;28;20170;-74
2021/12/02 06:44:51;;;;;;;3.60;2.33;;;1.00;1.00;;;;;;4971943;28;20189;-74
2021/12/02 06:47:17;;;;;;;1.60;1.50;;;1.10;1.00;;;;;;4972161;28;20174;-73
2021/12/02 06:49:42;;;;;;;1.60;1.50;;;1.20;1.00;;;;;;4984878;28;20226;-70
2021/12/02 06:52:13;;;;;;;4.10;2.30;;;1.20;1.00;;;;;;4989500;28;20408;-71
2021/12/02 06:54:39;;;;;;;4.00;2.67;;;1.10;1.00;;;;;;4979482;28;20184;-68
2021/12/02 06:57:05;;;;;;;7.13;1.97;;;1.20;1.00;;;;;;4989001;28;20197;-73
2021/12/02 06:59:31;;;;;;;2.38;2.17;;;1.10;1.00;;;;;;4991480;28;20404;-73
2021/12/02 07:01:57;;;;;;;3.20;1.90;;;1.10;1.00;;;;;;4989790;28;20536;-69
2021/12/02 07:04:23;;;;;;;2.10;2.00;;;1.10;1.00;;;;;;4990718;28;20169;-73
2021/12/02 07:06:49;;;;;;;2.50;2.30;;;1.10;1.00;;;;;;4991088;28;20652;-74
2021/12/02 07:09:15;;;;;;;6.40;2.70;;;1.10;1.00;;;;;;4991064;28;20226;-74
2021/12/02 07:11:41;;;;;;;3.13;1.60;;;1.10;1.00;;;;;;4990671;28;20175;-72
2021/12/02 07:14:11;;;;;;;5.03;2.40;;;1.20;1.00;;;;;;4990197;28;20408;-69
2021/12/02 07:16:38;;;;;;;5.35;2.10;;;1.20;1.00;;;;;;4990906;28;20189;-74
2021/12/02 07:19:05;;;;;;;2.38;2.17;;;1.20;1.00;;;;;;4990954;28;20180;-71
2021/12/02 07:21:31;;;;;;;2.38;2.15;;;1.20;1.00;;;;;;4991101;28;20266;-73
2021/12/02 07:23:57;;;;;;;6.53;2.37;;;1.20;1.00;;;;;;4990024;28;20642;-69
2021/12/02 07:26:22;;;;;;;5.13;2.67;;;1.20;1.00;;;;;;4989663;28;20284;-70
2021/12/02 07:28:48;;;;;;;4.17;2.23;;;1.20;1.00;;;;;;4990190;28;21062;-70
2021/12/02 07:31:15;;;;;;;5.35;2.08;;;1.20;1.00;;;;;;4990723;28;20518;-73
2021/12/02 07:33:48;;;;;;;5.55;2.42;;;1.20;1.00;;;;;;4990013;28;20165;-70
2021/12/02 07:36:15;;;;;;;2.28;1.95;;;1.20;1.00;;;;;;4990880;28;20181;-74
2021/12/02 07:38:41;;;;;;;2.10;1.80;;;1.20;1.00;;;;;;4990651;28;20177;-73
2021/12/02 07:41:07;;;;;;;16.15;2.22;;;1.20;1.00;;;;;;4992934;28;20642;-69
2021/12/02 07:43:35;;;;;;;2.58;2.10;;;1.20;1.00;;;;;;4993467;28;20201;-68
2021/12/02 07:46:01;;;;;;;2.00;1.90;;;1.30;1.00;;;;;;4993406;28;20208;-71
2021/12/02 07:48:27;;;;;;;4.90;2.25;;;1.30;1.00;;;;;;4994058;28;20181;-70
2021/12/02 07:51:17;;;;;;;6.03;2.50;;;1.30;1.00;;;;;;4994250;28;20169;-70
2021/12/02 07:53:44;;;;;;;2.50;2.30;;;1.20;1.00;;;;;;4993286;28;20404;-72
2021/12/02 07:56:13;;;;;;;2.65;2.08;;;1.30;1.00;;;;;;4993949;28;20665;-74
2021/12/02 07:58:41;;;;;;;1.70;1.60;;;1.30;1.00;;;;;;4994009;28;20666;-69
2021/12/02 08:01:07;;;;;;;3.47;1.83;;;1.30;1.00;;;;;;4993980;28;20207;-72
2021/12/02 08:03:33;;;;;;;1.67;1.47;;;1.30;1.00;;;;;;4992583;28;20567;-73
2021/12/02 08:05:59;;;;;;;2.70;2.50;;;1.30;1.00;;;;;;4993790;28;20526;-74
2021/12/02 08:08:24;;;;;;;2.40;2.30;;;1.30;1.00;;;;;;4993917;28;20479;-69
2021/12/02 08:10:50;;;;;;;3.17;2.20;;;1.40;1.00;;;;;;4993898;28;20169;-74
2021/12/02 08:13:16;;;;;;;1.97;1.80;;;1.40;1.00;;;;;;4992878;28;20165;-70
2021/12/02 08:15:42;;;;;;;8.33;2.77;;;1.40;1.00;;;;;;4993741;28;20188;-72
2021/12/02 08:18:09;;;;;;;4.00;2.10;;;1.40;1.00;;;;;;4993812;28;20174;-69
2021/12/02 08:20:36;;;;;;;4.95;2.45;;;1.40;1.00;;;;;;4993082;28;20177;-73
2021/12/02 08:23:02;;;;;;;2.50;2.30;;;1.40;1.00;;;;;;4991564;28;20662;-70
2021/12/02 08:25:30;;;;;;;7.47;2.97;;;1.50;1.00;;;;;;4993427;28;20223;-72
2021/12/02 08:27:59;;;;;;;2.50;2.30;;;1.40;1.00;;;;;;4993672;28;20173;-74
2021/12/02 08:30:27;;;;;;;4.63;2.58;;;1.50;1.00;;;;;;4993557;28;20284;-69
2021/12/02 08:32:58;;;;;;;4.95;2.45;;;1.40;1.00;;;;;;4992720;28;20161;-73
2021/12/02 08:35:24;;;;;;;3.30;2.40;;;1.40;1.00;;;;;;4992101;28;20189;-72
2021/12/02 08:37:53;;;;;;;6.97;2.85;;;1.40;1.00;;;;;;4993106;28;20177;-73
2021/12/02 08:40:30;;;;;;;3.05;2.63;;;1.40;1.00;;;;;;4993064;28;20290;-70
2021/12/02 08:42:55;;;;;;;3.63;2.55;;;1.40;1.00;;;;;;4992699;28;20196;-69
2021/12/02 08:45:21;;;;;;;2.30;2.20;;;1.50;1.00;;;;;;4993110;28;20309;-73
2021/12/02 08:47:47;;;;;;;3.60;2.77;;;1.50;1.00;;;;;;4993154;28;20177;-73
2021/12/02 08:50:18;;;;;;;4.77;2.67;;;1.50;1.00;;;;;;4993292;28;20208;-69
2021/12/02 08:52:45;;;;;;;2.05;1.95;;;1.60;1.00;;;;;;4991981;28;20173;-69
2021/12/02 08:55:11;;;;;;;2.78;2.67;;;1.70;1.00;;;;;;4989354;28;20284;-73
2021/12/02 08:57:37;;;;;;;4.40;1.90;;;1.70;1.00;;;;;;4973201;28;20201;-74
2021/12/02 09:00:08;;;;;;;6.93;1.73;;;1.70;1.00;;;;;;4974715;28;20452;-74
2021/12/02 09:02:34;;;;;;;1.95;1.85;;;1.80;1.00;;;;;;4972774;28;20260;-73
2021/12/02 09:04:59;;;;;;;2.40;2.23;;;1.80;1.00;;;;;;4980830;28;20260;-73
2021/12/02 09:07:26;;;;;;;5.63;2.23;;;1.90;1.00;;;;;;4980488;28;20697;-70
2021/12/02 09:09:52;;;;;;;2.00;1.90;;;2.00;1.00;;;;;;4973261;28;20543;-69
2021/12/02 09:12:17;;;;;;;2.00;1.80;;;2.00;1.00;;;;;;4972642;28;20244;-71
2021/12/02 09:14:43;;;;;;;1.50;1.40;;;2.10;1.00;;;;;;4972677;28;20213;-71
2021/12/02 09:17:09;;;;;;;4.20;2.17;;;2.10;1.00;;;;;;4972094;28;20429;-69
2021/12/02 09:19:34;;;;;;;3.10;2.10;;;2.10;99.90;;;;;;4973386;28;20227;-74
2021/12/02 09:22:01;;;;;;;6.70;1.90;;;2.10;99.90;;;;;;4972445;28;20550;-74
2021/12/02 09:24:26;;;;;;;3.70;2.40;;;2.20;99.90;;;;;;4986255;28;20176;-70
2021/12/02 09:26:53;;;;;;;3.70;2.50;;;2.20;99.90;;;;;;4992791;28;20430;-69
2021/12/02 09:29:20;;;;;;;1.97;1.87;;;2.20;99.90;;;;;;4980637;28;20193;-70
2021/12/02 09:31:47;;;;;;;2.38;1.95;;;2.20;99.90;;;;;;4972686;28;20428;-70
2021/12/02 09:34:13;;;;;;;1.80;1.70;;;2.20;99.90;;;;;;4988830;28;20181;-74
2021/12/02 09:36:39;;;;;;;9.17;2.60;;;2.20;99.90;;;;;;4992535;28;20542;-70
2021/12/02 09:39:07;;;;;;;2.20;2.00;;;2.10;99.90;;;;;;4991608;28;20438;-74
2021/12/02 09:41:33;;;;;;;2.20;2.00;;;2.20;99.90;;;;;;4992582;28;20173;-72
2021/12/02 09:43:59;;;;;;;3.10;2.90;;;2.20;99.90;;;;;;4980058;28;20700;-70
2021/12/02 09:46:25;;;;;;;3.87;2.13;;;2.10;99.90;;;;;;4972882;28;20459;-71
2021/12/02 09:48:53;;;;;;;2.20;2.10;;;2.10;99.90;;;;;;4972422;28;20558;-73
2021/12/02 09:51:23;;;;;;;2.00;1.90;;;2.10;99.90;;;;;;4972977;28;20435;-73
2021/12/02 09:53:59;;;;;;;2.80;2.65;;;2.30;99.90;;;;;;4983150;28;20649;-71
2021/12/02 09:56:28;;;;;;;2.30;2.10;;;2.30;99.90;;;;;;4990532;28;20279;-71
2021/12/02 09:58:59;;;;;;;1.83;1.73;;;2.20;99.90;;;;;;4992423;28;20188;-73
2021/12/02 10:01:35;;;;;;;1.95;1.85;;;2.20;99.90;;;;;;4990147;28;20724;-70
2021/12/02 10:04:02;;;;;;;1.80;1.70;;;2.20;99.90;;;;;;4990305;28;20181;-71
2021/12/02 10:06:32;;;;;;;2.10;2.00;;;2.20;99.90;;;;;;4989602;28;20876;-73
2021/12/02 10:09:13;;;;;;;3.83;2.40;;;2.20;99.90;;;;;;4991933;28;20203;-71
2021/12/02 10:14:27;;;;;;;2.43;2.30;;;2.40;99.90;;;;;;4972099;28;20409;-72
2021/12/02 10:17:15;;;;;;;1.83;1.73;;;2.50;99.90;;;;;;4982656;28;20477;-71
2021/12/02 10:22:38;;;;;;;3.30;1.73;;;2.60;99.90;;;;;;4974976;28;20421;-72
2021/12/02 10:25:05;;;;;;;2.33;2.13;;;2.60;99.90;;;;;;4971063;28;20451;-74
2021/12/02 10:27:30;;;;;;;2.17;2.07;;;2.70;99.90;;;;;;4972292;28;20478;-73
2021/12/02 10:29:56;;;;;;;11.77;1.73;;;2.70;99.90;;;;;;4971650;28;20445;-73
2021/12/02 10:32:25;;;;;;;1.97;1.50;;;2.60;99.90;;;;;;4983249;28;20169;-73
2021/12/02 10:34:52;;;;;;;4.50;2.50;;;2.60;99.90;;;;;;4991132;28;20200;-73
2021/12/02 10:37:19;;;;;;;1.80;1.70;;;2.60;99.90;;;;;;4979371;28;20420;-74
2021/12/02 10:40:09;;;;;;;3.53;1.87;;;2.70;99.90;;;;;;4971902;28;20926;-72
2021/12/02 10:42:38;;;;;;;2.20;2.10;;;2.70;99.90;;;;;;4970627;28;20425;-73
2021/12/02 10:45:06;;;;;;;2.30;2.10;;;2.80;99.90;;;;;;4971413;28;20518;-73
2021/12/02 10:47:33;;;;;;;3.07;1.83;;;2.70;99.90;;;;;;4971486;28;21015;-72
2021/12/02 10:50:09;;;;;;;1.73;1.63;;;2.80;99.90;;;;;;4971499;28;20460;-73
2021/12/02 10:52:35;;;;;;;2.10;2.00;;;2.70;99.90;;;;;;4983552;28;20459;-74
2021/12/02 10:55:11;;;;;;;3.87;2.33;;;2.70;99.90;;;;;;4990211;28;20472;-74
2021/12/02 10:57:44;;;;;;;5.47;2.57;;;2.60;99.90;;;;;;4990456;28;20435;-73
2021/12/02 11:00:15;;;;;;;1.73;1.63;;;2.60;99.90;;;;;;4991115;28;20397;-74
2021/12/02 11:02:48;;;;;;;1.80;1.70;;;2.50;99.90;;;;;;4974475;28;20421;-74
2021/12/02 11:05:24;;;;;;;3.83;1.93;;;2.60;99.90;;;;;;4970458;28;20524;-74
2021/12/02 11:07:56;;;;;;;1.87;1.77;;;2.60;99.90;;;;;;4971783;28;20459;-74
2021/12/02 11:10:24;;;;;;;2.07;1.97;;;2.50;99.90;;;;;;4971739;28;20453;-73
2021/12/02 11:12:53;;;;;;;2.20;1.88;;;2.60;99.90;;;;;;4970741;28;20498;-74
2021/12/02 11:15:28;;;;;;;5.70;2.43;;;2.60;99.90;;;;;;4979288;28;20211;-74
2021/12/02 11:18:02;;;;;;;13.53;2.50;;;2.60;99.90;;;;;;4990843;28;20502;-74
2021/12/02 11:20:32;;;;;;;4.83;2.23;;;2.70;99.90;;;;;;4981091;28;20428;-74
2021/12/02 11:23:14;;;;;;;2.70;2.30;;;2.70;99.90;;;;;;4983730;28;21148;-74
2021/12/02 11:26:00;;;;;;;11.07;3.53;;;2.70;99.90;;;;;;4979284;28;20441;-74
2021/12/02 11:28:32;;;;;;;2.20;1.93;;;2.70;99.90;;;;;;4971369;28;20409;-74
2021/12/02 11:31:07;;;;;;;2.40;2.00;;;2.70;99.90;;;;;;4972379;28;20423;-74
2021/12/02 11:33:35;;;;;;;4.50;2.03;;;2.70;99.90;;;;;;4970493;28;20914;-75
2021/12/02 11:36:03;;;;;;;3.20;2.20;;;2.70;99.90;;;;;;4985880;28;20537;-74
2021/12/02 11:38:30;;;;;;;2.80;2.55;;;2.70;99.90;;;;;;4990907;28;20396;-74
2021/12/02 11:40:58;;;;;;;3.17;2.43;;;2.70;99.90;;;;;;4976175;28;20674;-75
2021/12/02 11:43:39;;;;;;;4.40;1.90;;;2.70;99.90;;;;;;4970349;28;20423;-75
2021/12/02 11:46:09;;;;;;;2.33;2.13;;;2.60;99.90;;;;;;4985031;28;20439;-74
2021/12/02 11:48:38;;;;;;;1.70;1.60;;;2.70;99.90;;;;;;4990659;28;20428;-75
2021/12/02 11:51:07;;;;;;;1.60;1.50;;;2.70;99.90;;;;;;4976913;28;20425;-75
2021/12/02 11:53:32;;;;;;;2.17;1.80;;;2.70;99.90;;;;;;4970324;28;20979;-75
2021/12/02 11:56:13;;;;;;;5.93;1.93;;;2.70;99.90;;;;;;4982703;28;20436;-74
2021/12/02 11:58:39;;;;;;;1.93;1.53;;;2.80;99.90;;;;;;4970977;28;20161;-74
2021/12/02 12:01:08;;;;;;;3.00;2.03;;;2.90;99.90;;;;;;4971718;28;20408;-75
2021/12/02 12:03:43;;;;;;;2.50;2.30;;;2.90;99.90;;;;;;4988999;28;20420;-74
2021/12/02 12:06:15;;;;;;;5.55;2.15;;;2.80;99.90;;;;;;4988521;28;20443;-74
2021/12/02 12:08:45;;;;;;;3.87;1.80;;;2.80;99.90;;;;;;4971032;28;20201;-74
2021/12/02 12:11:33;;;;;;;2.00;1.80;;;2.80;99.90;;;;;;4971987;28;20401;-75
2021/12/02 12:14:03;;;;;;;4.30;2.40;;;2.80;99.90;;;;;;4968469;28;20504;-74
2021/12/02 12:16:35;;;;;;;1.70;1.60;;;2.90;99.90;;;;;;4970705;28;20787;-74
2021/12/02 12:19:20;;;;;;;10.93;2.50;;;2.80;99.90;;;;;;4970014;28;20401;-74
2021/12/02 12:21:53;;;;;;;4.03;2.30;;;2.90;99.90;;;;;;4975613;28;20416;-74
2021/12/02 12:24:18;;;;;;;2.60;2.33;;;2.90;99.90;;;;;;4989622;28;20392;-74
2021/12/02 12:26:47;;;;;;;2.47;2.10;;;2.80;99.90;;;;;;4983869;28;20493;-74
2021/12/02 12:29:15;;;;;;;3.40;2.07;;;2.80;99.90;;;;;;4974010;28;20523;-74
2021/12/02 12:32:07;;;;;;;5.00;2.17;;;2.80;99.90;;;;;;4980619;28;20416;-74
2021/12/02 12:34:39;;;;;;;2.00;1.90;;;2.80;99.90;;;;;;4993677;28;20397;-74
2021/12/02 12:37:22;;;;;;;2.17;2.07;;;2.90;99.90;;;;;;4982636;28;20444;-74
2021/12/02 12:40:06;;;;;;;1.80;1.70;;;3.00;99.90;;;;;;4974017;28;20405;-74
2021/12/02 12:42:32;;;;;;;2.23;2.03;;;3.00;99.90;;;;;;4988702;28;20426;-73
2021/12/02 12:45:00;;;;;;;2.17;2.07;;;3.10;99.90;;;;;;4993197;28;20428;-74
2021/12/02 12:47:43;;;;;;;2.00;1.90;;;3.10;99.90;;;;;;4991556;28;20482;-74
2021/12/02 12:50:33;;;;;;;4.07;2.30;;;3.00;99.90;;;;;;4990272;28;20972;-73
2021/12/02 12:53:12;;;;;;;2.10;2.00;;;3.00;99.90;;;;;;4972777;28;20400;-73
2021/12/02 12:55:40;;;;;;;2.70;1.90;;;3.00;99.90;;;;;;4977641;28;20763;-74
2021/12/02 12:58:13;;;;;;;4.00;1.77;;;3.10;99.90;;;;;;4993192;28;20396;-74
2021/12/02 13:00:46;;;;;;;3.87;1.90;;;3.00;99.90;;;;;;4988650;28;20559;-74
2021/12/02 13:03:16;;;;;;;4.83;2.70;;;3.00;99.90;;;;;;4972880;28;20409;-73
2021/12/02 13:05:50;;;;;;;3.40;1.60;;;3.00;99.90;;;;;;4977311;28;20444;-73
2021/12/02 13:08:22;;;;;;;3.73;1.77;;;3.10;99.90;;;;;;4993016;28;20905;-73
2021/12/02 13:10:56;;;;;;;5.27;2.47;;;3.00;99.90;;;;;;4988147;28;20469;-73
2021/12/02 13:13:26;;;;;;;2.20;1.73;;;3.00;99.90;;;;;;4972157;28;20443;-74
2021/12/02 13:15:52;;;;;;;2.27;1.93;;;2.90;99.90;;;;;;4977139;28;20490;-73
2021/12/02 13:18:36;;;;;;;2.20;2.00;;;2.80;99.90;;;;;;4992840;28;20417;-73
2021/12/02 13:21:33;;;;;;;2.43;1.93;;;2.70;99.90;;;;;;4987379;28;20466;-73
2021/12/02 13:24:04;;;;;;;2.80;2.60;;;2.70;99.90;;;;;;4972513;28;20830;-73
2021/12/02 13:26:52;;;;;;;2.10;2.00;;;2.70;99.90;;;;;;4981456;28;20436;-73
2021/12/02 13:29:30;;;;;;;6.73;2.53;;;2.70;99.90;;;;;;5001541;28;20456;-72
2021/12/02 13:32:04;;;;;;;1.80;1.70;;;2.80;99.90;;;;;;4979895;28;20976;-74
2021/12/02 13:34:32;;;;;;;3.37;1.87;;;2.80;99.90;;;;;;4973237;28;20408;-73